African Cendana — VRAE9 — position and weather

sailwx.info

Track history (hours):
 
Tides and Currents Weather Stations Pressure Air Temp Water Temp Dewpoint Dewpoint Depression Visibility Wind Speed Wind Dir Waves Ship Positions

African Cendana

Last reported at 2018-Apr-20 01:37 UTC. Time now 2018-Apr-21 02:14 UTC.
Position N 10°17' W 017°08'.

Length 189 m; draft 11.6 m.

Type: Ship. MMSI: 477520600.

Date/timePositionNaut miles runAvg speedWind from/ knotsBaromVisibWave heightAir tempDewpointWater temp
2018-Apr-20 01:37N 10°17' W 017°08'112.4
2018-Apr-20 01:30N 10°16' W 017°08'612.3
2018-Apr-20 01:00N 10°10' W 017°05'4612.8
2018-Apr-19 21:25N 09°32' W 016°39'612.7
2018-Apr-19 20:58N 09°28' W 016°35'612.9
2018-Apr-19 20:28N 09°22' W 016°31'612.9
2018-Apr-19 20:00N 09°18' W 016°28'612.7
2018-Apr-19 19:30N 09°13' W 016°24'612.6
2018-Apr-19 19:00N 09°08' W 016°20'812.6
2018-Apr-19 18:24N 09°01' W 016°15'512.8
2018-Apr-19 18:00N 08°57' W 016°12'1412.7
2018-Apr-19 16:54N 08°46' W 016°04'512.6
2018-Apr-19 16:28N 08°42' W 016°00'  
Track history (hours):
 
Tides and Currents Weather Stations Pressure Air Temp Water Temp Dewpoint Dewpoint Depression Visibility Wind Speed Wind Dir Waves Ship Positions

African Cendana

Last reported at 2018-Apr-20 01:37 UTC. Time now 2018-Apr-21 02:14 UTC.
Position N 10°17' W 017°08'.

Length 189 m; draft 11.6 m.

Type: Ship. MMSI: 477520600.

Date/timePositionNaut miles runAvg speedWind from/ knotsBaromVisibWave heightAir tempDewpointWater temp
2018-Apr-20 01:37N 10°17' W 017°08'112.4
2018-Apr-20 01:30N 10°16' W 017°08'612.3
2018-Apr-20 01:00N 10°10' W 017°05'4612.8
2018-Apr-19 21:25N 09°32' W 016°39'612.7
2018-Apr-19 20:58N 09°28' W 016°35'612.9
2018-Apr-19 20:28N 09°22' W 016°31'612.9
2018-Apr-19 20:00N 09°18' W 016°28'612.7
2018-Apr-19 19:30N 09°13' W 016°24'612.6
2018-Apr-19 19:00N 09°08' W 016°20'812.6
2018-Apr-19 18:24N 09°01' W 016°15'512.8
2018-Apr-19 18:00N 08°57' W 016°12'1412.7
2018-Apr-19 16:54N 08°46' W 016°04'512.6
2018-Apr-19 16:28N 08°42' W 016°00'  

Dump ship's entire track history